Brookfield, Connecticut
Current Conditions -  °F | °C
As of 8:53 AM on Sunday 23 Nov 2014 (Local Time) from KDXR Reporting Station
Overcast Overcast  
Wind Chill: 40°   Ceiling: 6500
Heat Index: 43°   Visibility: 10mi
Dew Point: 22°   Wind: 5mph
Humidity: 43%   Direction: NA
Pressure: 30.19"   Gusts: NA
Location:  41.48°N, 73.41°W
Report Text: KDXR 231353Z VRB04KT 10SM OVC065 06/M06 A3019 RMK AO2 RAE22 SLP225 P0000 T00611056
Loading
Personal Weather Stations






























Interactive Weather Map New forecast layout! Learn more

10-Day Weather Forecast

Advertisements
Track Severe Weather on mobile